Terminal Aerodrome Forecast
Issued by NWS

Home | Current Version | Previous Version | Text Only | Print | Product List | Glossary On
Versions: 1 2 3 4 5 6 7 8 9 10 11 12 13 14 15 16 17 18 19 20 21 22 23 24 25 26 27 28 29 30
414
FTUS45 KREV 052320
TAFCXP
TAF
KCXP 052320Z 0600/0624 31010G20KT P6SM -RA BKN040 OVC100
     FM060600 VRB04KT P6SM VCSH BKN070 OVC100
     FM061400 VRB04KT 5SM -RA BKN040 OVC100=

USA.gov is the U.S. government's official web portal to all federal, state and local government web resources and services.